Terminal Aerodrome Forecast
Issued by NWS

Home | Current Version | Previous Version | Text Only | Print | Product List | Glossary On
Versions: 1 2 3 4 5 6 7 8 9 10 11 12 13 14 15 16 17 18
000
FTUS46 KSEW 221759
TAFHQM
TAF
KHQM 221759Z 2218/2318 17010KT P6SM VCSH SCT035 SCT060
      TEMPO 2218/2222 6SM -SHRA BR BKN035 BKN070
     FM230200 09005KT P6SM BKN050
     FM230800 07013KT P6SM BKN050
     FM231200 08015G25KT 4SM -RA BR OVC025 WS020/19040KT=

USA.gov is the U.S. government's official web portal to all federal, state and local government web resources and services.